Time;durP1;ratioP1;P1;durP2;ratioP2;P2;SDS_P1;SDS_P2;PMS_P1;PMS_P2;Temp;Humidity;BMP_temperature;BMP_pressure;BME280_temperature;BME280_humidity;BME280_pressure;Samples;Min_cycle;Max_cycle;Signal;HPM_P1;HPM_P2
2022/08/18 00:01:46;;;;;;;9.25;6.00;;;18.50;99.90;;;;;;5036058;28;20664;-60
2022/08/18 00:04:11;;;;;;;9.45;5.82;;;18.50;99.90;;;;;;5036105;28;20168;-60
2022/08/18 00:06:37;;;;;;;10.18;6.57;;;18.50;99.90;;;;;;5034882;28;20665;-60
2022/08/18 00:09:06;;;;;;;9.35;6.05;;;18.50;99.90;;;;;;5036248;28;20246;-60
2022/08/18 00:11:39;;;;;;;7.80;6.05;;;18.50;99.90;;;;;;5036149;28;20179;-60
2022/08/18 00:14:05;;;;;;;9.88;6.00;;;18.50;99.90;;;;;;5036136;28;20259;-61
2022/08/18 00:16:31;;;;;;;8.63;6.28;;;18.50;99.90;;;;;;5035943;28;20172;-60
2022/08/18 00:18:56;;;;;;;7.45;5.90;;;18.40;99.90;;;;;;5035720;28;20183;-60
2022/08/18 00:21:22;;;;;;;8.60;5.53;;;18.40;99.90;;;;;;5035840;28;20180;-60
2022/08/18 00:23:48;;;;;;;8.95;6.28;;;18.40;99.90;;;;;;5034717;28;20187;-61
2022/08/18 00:26:14;;;;;;;9.05;6.82;;;18.40;99.90;;;;;;5035699;28;20494;-60
2022/08/18 00:28:39;;;;;;;9.57;6.38;;;18.30;99.90;;;;;;5034269;28;20199;-60
2022/08/18 00:31:05;;;;;;;10.02;6.10;;;18.30;99.90;;;;;;5035706;28;20208;-61
2022/08/18 00:33:31;;;;;;;9.80;6.80;;;18.20;99.90;;;;;;5035545;28;20210;-60
2022/08/18 00:35:57;;;;;;;9.27;6.90;;;18.10;99.90;;;;;;5034153;28;20637;-60
2022/08/18 00:38:22;;;;;;;13.00;7.07;;;18.10;99.90;;;;;;5035672;28;20545;-60
2022/08/18 00:40:50;;;;;;;9.25;6.18;;;18.10;99.90;;;;;;5035591;28;20203;-60
2022/08/18 00:43:23;;;;;;;8.55;6.25;;;18.10;99.90;;;;;;5035365;28;20211;-60
2022/08/18 00:45:49;;;;;;;9.65;6.28;;;18.10;99.90;;;;;;5035354;28;20637;-60
2022/08/18 00:48:15;;;;;;;9.55;6.82;;;18.10;99.90;;;;;;5034049;28;20318;-60
2022/08/18 00:50:58;;;;;;;9.02;6.30;;;18.10;99.90;;;;;;5035053;28;20656;-60
2022/08/18 00:53:34;;;;;;;10.18;6.93;;;18.10;99.90;;;;;;5035355;28;20183;-60
2022/08/18 00:56:07;;;;;;;9.30;6.20;;;18.10;99.90;;;;;;5035367;28;20168;-60
2022/08/18 00:58:47;;;;;;;9.88;6.93;;;18.10;99.90;;;;;;5035268;28;20222;-60
2022/08/18 01:01:15;;;;;;;8.82;6.35;;;18.10;99.90;;;;;;5035229;28;20168;-60
2022/08/18 01:03:43;;;;;;;9.27;6.55;;;18.00;99.90;;;;;;5035142;28;20175;-60
2022/08/18 01:06:20;;;;;;;9.75;7.00;;;18.00;99.90;;;;;;5035384;28;20179;-60
2022/08/18 01:08:46;;;;;;;9.60;6.40;;;18.10;99.90;;;;;;5035027;28;20632;-60
2022/08/18 01:11:11;;;;;;;9.30;6.60;;;18.20;99.90;;;;;;5033562;28;20186;-60
2022/08/18 01:13:40;;;;;;;9.30;5.85;;;18.30;99.90;;;;;;5034903;28;20335;-60
2022/08/18 01:21:50;;;;;;;9.90;6.45;;;18.40;99.90;;;;;;5034862;28;20568;-60
2022/08/18 01:24:19;;;;;;;7.32;6.32;;;18.40;99.90;;;;;;5034744;28;20180;-60
2022/08/18 01:26:49;;;;;;;9.75;6.78;;;18.30;99.90;;;;;;5033414;28;20168;-61
2022/08/18 01:29:17;;;;;;;10.02;6.88;;;18.30;99.90;;;;;;5034664;28;20610;-61
2022/08/18 01:31:53;;;;;;;8.25;6.40;;;18.40;99.90;;;;;;5034072;28;20217;-60
2022/08/18 01:34:23;;;;;;;10.27;6.70;;;18.40;99.90;;;;;;5034888;28;20517;-60
2022/08/18 01:36:51;;;;;;;9.68;6.90;;;18.30;99.90;;;;;;5034410;28;20506;-61
2022/08/18 01:39:18;;;;;;;8.65;6.10;;;18.20;99.90;;;;;;5034462;28;20171;-61
2022/08/18 01:41:43;;;;;;;9.75;7.47;;;18.10;99.90;;;;;;5034512;28;20271;-60
2022/08/18 01:44:10;;;;;;;9.88;6.32;;;18.10;99.90;;;;;;5016645;28;20764;-61
2022/08/18 01:46:39;;;;;;;9.68;6.18;;;18.00;99.90;;;;;;5034109;28;20179;-61
2022/08/18 01:49:06;;;;;;;8.68;5.78;;;18.00;99.90;;;;;;5034294;28;20168;-61
2022/08/18 01:51:33;;;;;;;11.13;6.53;;;18.00;99.90;;;;;;5033048;28;20215;-60
2022/08/18 01:54:00;;;;;;;9.82;6.28;;;17.90;99.90;;;;;;5034244;28;20172;-61
2022/08/18 01:56:26;;;;;;;7.90;5.93;;;17.90;99.90;;;;;;5016586;28;20187;-61
2022/08/18 01:58:53;;;;;;;8.82;6.28;;;17.90;99.90;;;;;;5034578;28;20576;-60
2022/08/18 02:01:19;;;;;;;10.32;6.63;;;17.90;99.90;;;;;;5033830;28;20226;-60
2022/08/18 02:03:50;;;;;;;8.75;5.97;;;17.90;99.90;;;;;;5033844;28;20183;-60
2022/08/18 02:06:17;;;;;;;9.13;6.07;;;17.90;99.90;;;;;;5033962;28;20214;-61
2022/08/18 02:08:44;;;;;;;8.93;6.15;;;17.90;99.90;;;;;;5034005;28;20705;-61
2022/08/18 02:11:10;;;;;;;9.68;6.53;;;17.90;99.90;;;;;;5033816;28;20172;-60
2022/08/18 02:13:36;;;;;;;7.97;6.10;;;17.90;99.90;;;;;;5033778;28;20176;-61
2022/08/18 02:16:03;;;;;;;8.48;6.57;;;17.90;99.90;;;;;;5032498;28;20176;-61
2022/08/18 02:18:31;;;;;;;9.05;6.47;;;17.80;99.90;;;;;;5033805;28;20203;-61
2022/08/18 02:21:04;;;;;;;7.45;6.03;;;17.80;99.90;;;;;;5033714;28;20176;-61
2022/08/18 02:23:30;;;;;;;9.10;6.38;;;17.80;99.90;;;;;;5033621;28;20206;-60
2022/08/18 02:25:56;;;;;;;9.43;6.50;;;17.80;99.90;;;;;;5032297;28;20544;-60
2022/08/18 02:28:22;;;;;;;7.38;6.00;;;17.70;99.90;;;;;;5032076;28;20196;-60
2022/08/18 02:30:47;;;;;;;7.43;5.40;;;17.80;99.90;;;;;;5033711;28;20652;-61
2022/08/18 02:33:13;;;;;;;9.82;6.63;;;17.80;99.90;;;;;;5032710;28;20199;-61
2022/08/18 02:35:42;;;;;;;8.90;6.57;;;17.70;99.90;;;;;;5032267;28;20211;-61
2022/08/18 02:38:08;;;;;;;12.00;7.38;;;17.70;99.90;;;;;;5032288;28;20192;-60
2022/08/18 02:40:34;;;;;;;8.93;5.65;;;17.60;99.90;;;;;;5033230;28;20176;-60
2022/08/18 02:43:08;;;;;;;9.57;6.75;;;17.50;99.90;;;;;;5031430;28;20719;-60
2022/08/18 02:45:35;;;;;;;8.68;6.00;;;17.50;99.90;;;;;;5033456;28;20197;-60
2022/08/18 02:48:01;;;;;;;9.52;6.70;;;17.50;99.90;;;;;;5032136;28;20172;-60
2022/08/18 02:50:26;;;;;;;9.18;6.25;;;17.50;99.90;;;;;;5033425;28;20180;-60
2022/08/18 02:52:53;;;;;;;6.75;5.38;;;17.50;99.90;;;;;;5033354;28;20541;-62
2022/08/18 02:55:19;;;;;;;10.45;6.72;;;17.50;99.90;;;;;;5031838;28;20266;-60
2022/08/18 02:57:47;;;;;;;9.20;6.15;;;17.50;99.90;;;;;;5033288;28;20283;-61
2022/08/18 03:00:15;;;;;;;8.35;5.97;;;17.50;99.90;;;;;;5033353;28;20580;-61
2022/08/18 03:02:52;;;;;;;9.45;6.40;;;17.40;99.90;;;;;;5032102;28;20216;-61
2022/08/18 03:05:18;;;;;;;8.45;6.03;;;17.50;99.90;;;;;;5033188;28;20176;-60
2022/08/18 03:07:45;;;;;;;6.60;5.30;;;17.50;99.90;;;;;;5033002;28;20184;-60
2022/08/18 03:10:13;;;;;;;8.43;5.38;;;17.50;99.90;;;;;;5033178;28;20180;-60
2022/08/18 03:12:42;;;;;;;8.85;5.75;;;17.40;99.90;;;;;;5033216;28;20175;-60
2022/08/18 03:15:08;;;;;;;7.97;5.65;;;17.40;99.90;;;;;;5033140;28;20164;-60
2022/08/18 03:17:36;;;;;;;10.00;6.28;;;17.30;99.90;;;;;;5033140;28;20179;-60
2022/08/18 03:20:03;;;;;;;6.57;5.25;;;17.30;99.90;;;;;;5033055;28;20172;-61
2022/08/18 03:22:28;;;;;;;8.13;5.88;;;17.30;99.90;;;;;;5031530;28;20215;-61
2022/08/18 03:24:54;;;;;;;7.10;5.40;;;17.20;99.90;;;;;;5033407;28;20533;-60
2022/08/18 03:27:20;;;;;;;6.43;5.28;;;17.10;99.90;;;;;;5033022;28;20168;-60
2022/08/18 03:29:45;;;;;;;6.45;4.78;;;17.00;99.90;;;;;;5032900;28;20194;-60
2022/08/18 03:32:11;;;;;;;6.95;4.90;;;16.90;99.90;;;;;;5031743;28;20180;-60
2022/08/18 03:34:37;;;;;;;7.25;5.30;;;16.90;99.90;;;;;;5032980;28;20695;-60
2022/08/18 03:37:04;;;;;;;7.60;5.72;;;16.90;99.90;;;;;;5032757;28;20199;-61
2022/08/18 03:39:30;;;;;;;8.15;5.40;;;16.90;99.90;;;;;;5032883;28;20180;-60
2022/08/18 03:41:56;;;;;;;8.13;5.97;;;16.80;99.90;;;;;;5015326;28;20245;-60
2022/08/18 03:44:22;;;;;;;7.82;5.53;;;16.80;99.90;;;;;;5032849;28;20184;-60
2022/08/18 03:46:49;;;;;;;6.50;4.75;;;16.80;99.90;;;;;;5032783;28;20168;-60
2022/08/18 03:49:15;;;;;;;6.22;4.68;;;16.80;99.90;;;;;;5032776;28;20187;-60
2022/08/18 03:51:45;;;;;;;5.95;4.75;;;16.80;99.90;;;;;;5032648;28;20176;-61
2022/08/18 03:54:12;;;;;;;6.47;4.97;;;16.90;99.90;;;;;;5033924;28;20279;-60
2022/08/18 03:56:40;;;;;;;5.82;4.18;;;16.90;99.90;;;;;;5036325;28;20172;-61
2022/08/18 03:59:18;;;;;;;5.65;4.40;;;16.90;99.90;;;;;;5036368;28;20184;-61
2022/08/18 04:01:45;;;;;;;5.70;4.53;;;16.90;99.90;;;;;;5036122;28;20699;-60
2022/08/18 04:04:19;;;;;;;6.07;5.03;;;16.80;99.90;;;;;;5036150;28;20262;-61
2022/08/18 04:06:49;;;;;;;5.80;4.65;;;16.70;99.90;;;;;;5036373;28;20172;-60
2022/08/18 04:09:16;;;;;;;5.53;4.53;;;16.70;99.90;;;;;;5036211;28;20621;-61
2022/08/18 04:11:43;;;;;;;5.13;3.95;;;16.80;99.90;;;;;;5036083;28;20204;-61
2022/08/18 04:14:14;;;;;;;5.63;4.03;;;16.80;99.90;;;;;;5035943;28;20180;-60
2022/08/18 04:16:41;;;;;;;4.85;4.20;;;16.80;99.90;;;;;;5035812;28;20214;-61
2022/08/18 04:19:08;;;;;;;5.72;4.57;;;16.90;99.90;;;;;;5035826;28;20641;-60
2022/08/18 04:21:37;;;;;;;5.72;4.60;;;16.70;99.90;;;;;;5035940;28;20172;-60
2022/08/18 04:24:04;;;;;;;5.78;4.18;;;16.70;99.90;;;;;;5035923;28;20204;-61
2022/08/18 04:26:39;;;;;;;6.30;4.20;;;16.60;99.90;;;;;;5035700;28;20184;-61
2022/08/18 04:29:05;;;;;;;4.70;3.95;;;16.60;99.90;;;;;;5035766;28;20266;-61
2022/08/18 04:31:31;;;;;;;4.95;3.58;;;16.70;99.90;;;;;;5035663;28;20719;-60
2022/08/18 04:33:58;;;;;;;6.75;4.70;;;16.70;99.90;;;;;;5035721;28;20270;-61
2022/08/18 04:36:25;;;;;;;6.25;4.40;;;16.80;99.90;;;;;;5035682;28;20176;-61
2022/08/18 04:38:51;;;;;;;6.90;5.00;;;16.80;99.90;;;;;;5035486;28;20172;-61
2022/08/18 04:41:18;;;;;;;7.13;5.13;;;16.80;99.90;;;;;;5035421;28;20222;-61
2022/08/18 04:43:44;;;;;;;6.07;4.55;;;16.80;99.90;;;;;;5035252;28;20219;-60
2022/08/18 04:46:10;;;;;;;5.25;4.30;;;16.70;99.90;;;;;;5035547;28;20180;-61
2022/08/18 04:48:39;;;;;;;4.85;4.03;;;16.80;99.90;;;;;;5035410;28;20204;-61
2022/08/18 04:51:12;;;;;;;6.22;5.10;;;16.70;99.90;;;;;;5035096;28;20168;-61
2022/08/18 04:53:44;;;;;;;6.00;4.22;;;16.70;99.90;;;;;;5035204;28;20168;-61
2022/08/18 04:56:39;;;;;;;6.35;5.13;;;16.80;99.90;;;;;;5035077;28;20176;-60
2022/08/18 04:59:08;;;;;;;6.20;4.80;;;16.80;99.90;;;;;;5029277;28;20199;-61
2022/08/18 05:01:41;;;;;;;5.47;4.43;;;16.80;99.90;;;;;;5034904;28;20266;-61
2022/08/18 05:04:08;;;;;;;6.82;4.72;;;16.80;99.90;;;;;;5031375;28;20195;-51
2022/08/18 05:06:34;;;;;;;5.85;4.22;;;16.80;99.90;;;;;;5033571;28;20534;-58
2022/08/18 05:09:05;;;;;;;5.95;4.57;;;16.90;99.90;;;;;;5034015;28;20208;-59
2022/08/18 05:11:35;;;;;;;5.25;4.38;;;16.90;99.90;;;;;;5034587;28;20172;-58
2022/08/18 05:14:06;;;;;;;7.65;5.60;;;16.90;99.90;;;;;;5032164;28;20182;-58
2022/08/18 05:16:34;;;;;;;6.88;5.13;;;16.90;99.90;;;;;;5031806;28;20542;-58
2022/08/18 05:19:04;;;;;;;6.38;4.75;;;17.00;99.90;;;;;;5033403;28;20180;-58
2022/08/18 05:21:31;;;;;;;6.35;4.55;;;17.00;99.90;;;;;;5033140;28;20215;-58
2022/08/18 05:23:57;;;;;;;7.07;5.25;;;17.10;99.90;;;;;;5032369;28;20267;-58
2022/08/18 05:26:23;;;;;;;6.28;4.50;;;17.10;99.90;;;;;;5034145;28;20633;-59
2022/08/18 05:28:48;;;;;;;6.35;4.75;;;17.10;99.90;;;;;;5033143;28;20206;-59
2022/08/18 05:31:17;;;;;;;6.18;4.80;;;17.20;99.90;;;;;;5033246;28;20179;-58
2022/08/18 05:33:44;;;;;;;6.28;4.45;;;17.20;99.90;;;;;;5034405;28;20187;-59
2022/08/18 05:36:24;;;;;;;7.00;4.97;;;17.30;99.90;;;;;;5034678;28;20405;-58
2022/08/18 05:39:18;;;;;;;7.13;5.03;;;17.40;99.90;;;;;;5033512;28;20203;-58
2022/08/18 05:42:00;;;;;;;6.10;4.38;;;17.40;99.90;;;;;;5029943;28;20215;-58
2022/08/18 05:44:30;;;;;;;7.10;5.35;;;17.40;99.90;;;;;;5033274;28;20280;-59
2022/08/18 05:47:01;;;;;;;6.45;5.07;;;17.30;99.90;;;;;;5034163;28;20171;-59
2022/08/18 05:49:27;;;;;;;6.13;5.03;;;17.30;99.90;;;;;;5034262;28;20256;-58
2022/08/18 05:52:05;;;;;;;6.30;4.43;;;17.30;99.90;;;;;;5034402;28;20263;-58
2022/08/18 05:57:38;;;;;;;7.63;4.90;;;17.40;99.90;;;;;;5033999;28;20710;-59
2022/08/18 06:00:09;;;;;;;7.85;4.63;;;17.50;99.90;;;;;;5034074;28;20172;-58
2022/08/18 06:02:49;;;;;;;6.20;4.82;;;17.60;99.90;;;;;;5033920;28;20258;-59
2022/08/18 06:05:24;;;;;;;5.93;4.65;;;17.70;99.90;;;;;;5034073;28;20176;-58
2022/08/18 06:08:04;;;;;;;6.80;4.97;;;17.70;99.90;;;;;;5034058;28;20648;-60
2022/08/18 06:10:30;;;;;;;6.63;4.78;;;17.80;99.90;;;;;;5034036;28;20225;-58
2022/08/18 06:13:01;;;;;;;7.80;4.65;;;18.00;99.90;;;;;;5033707;28;20621;-58
2022/08/18 06:16:00;;;;;;;6.80;4.43;;;18.00;99.90;;;;;;5032576;28;20172;-58
2022/08/18 06:19:01;;;;;;;6.10;4.30;;;18.10;99.90;;;;;;5033644;28;20585;-59
2022/08/18 06:21:52;;;;;;;6.18;4.07;;;18.10;99.90;;;;;;5033548;28;20171;-58
2022/08/18 06:24:30;;;;;;;5.82;4.38;;;18.10;99.90;;;;;;5033684;28;20294;-58
2022/08/18 06:27:10;;;;;;;5.75;4.15;;;18.10;99.90;;;;;;5033745;28;20179;-59
2022/08/18 06:29:46;;;;;;;6.95;4.57;;;18.10;99.90;;;;;;5033347;28;20278;-58
2022/08/18 06:32:42;;;;;;;6.07;4.28;;;18.20;99.90;;;;;;5033738;28;20520;-59
2022/08/18 06:35:22;;;;;;;4.65;3.70;;;18.30;99.90;;;;;;5033613;28;20661;-59
2022/08/18 06:40:47;;;;;;;5.82;3.75;;;18.50;99.90;;;;;;5033639;28;20234;-59
2022/08/18 06:43:15;;;;;;;5.43;4.50;;;18.50;99.90;;;;;;5033363;28;20203;-59
2022/08/18 06:45:47;;;;;;;5.00;3.97;;;18.60;99.90;;;;;;5033351;28;20184;-58
2022/08/18 06:48:21;;;;;;;5.28;3.70;;;18.60;99.90;;;;;;5033265;28;20168;-59
2022/08/18 06:50:56;;;;;;;6.10;4.20;;;18.60;99.90;;;;;;5033197;28;20533;-58
2022/08/18 06:53:42;;;;;;;5.88;3.78;;;18.70;99.90;;;;;;5033393;28;20183;-58
2022/08/18 06:56:44;;;;;;;5.88;3.80;;;18.80;99.90;;;;;;5033215;28;20576;-58
2022/08/18 06:59:19;;;;;;;5.10;3.85;;;18.80;99.90;;;;;;5031778;28;20199;-59
2022/08/18 07:01:49;;;;;;;6.60;4.30;;;18.80;99.90;;;;;;5033208;28;20270;-59
2022/08/18 07:04:30;;;;;;;5.65;4.25;;;18.90;99.90;;;;;;5033245;28;20172;-59
2022/08/18 07:06:55;;;;;;;5.85;4.85;;;18.90;99.90;;;;;;5033211;28;20178;-59
2022/08/18 07:09:33;;;;;;;4.78;4.00;;;19.00;99.90;;;;;;5031813;28;20180;-58
2022/08/18 07:12:06;;;;;;;6.65;4.32;;;19.10;99.90;;;;;;5033337;28;20184;-58
2022/08/18 07:14:53;;;;;;;5.97;4.20;;;19.10;99.90;;;;;;5033184;28;20210;-58
2022/08/18 07:17:22;;;;;;;6.63;4.00;;;19.20;99.90;;;;;;5033201;28;20164;-58
2022/08/18 07:20:00;;;;;;;6.13;4.35;;;19.30;99.90;;;;;;5032871;28;20514;-58
2022/08/18 07:22:27;;;;;;;8.27;4.53;;;19.40;99.90;;;;;;5033099;28;20608;-59
2022/08/18 07:24:56;;;;;;;5.97;4.18;;;19.50;99.90;;;;;;5015493;28;20271;-59
2022/08/18 07:27:45;;;;;;;6.43;4.40;;;19.40;99.90;;;;;;5033020;28;20191;-58
2022/08/18 07:30:13;;;;;;;7.47;4.75;;;19.50;99.90;;;;;;5035745;28;20700;-58
2022/08/18 07:33:01;;;;;;;7.63;4.28;;;19.70;99.90;;;;;;5036949;28;20187;-59
2022/08/18 07:35:38;;;;;;;6.75;4.25;;;19.70;99.90;;;;;;5036859;28;20211;-58
2022/08/18 07:38:34;;;;;;;6.97;4.00;;;19.70;99.90;;;;;;5036805;28;20168;-58
2022/08/18 07:41:24;;;;;;;7.20;4.53;;;19.80;99.90;;;;;;5037180;28;20204;-58
2022/08/18 07:43:58;;;;;;;6.68;4.65;;;19.60;99.90;;;;;;5036419;28;20290;-59
2022/08/18 07:46:49;;;;;;;7.53;4.78;;;19.80;99.90;;;;;;5036614;28;20191;-58
2022/08/18 07:49:23;;;;;;;6.93;4.47;;;19.90;99.90;;;;;;5036712;28;20169;-58
2022/08/18 07:52:27;;;;;;;7.78;4.75;;;19.90;99.90;;;;;;5036307;28;20651;-58
2022/08/18 07:55:14;;;;;;;7.85;4.32;;;20.00;99.90;;;;;;5034928;28;20250;-58
2022/08/18 07:57:57;;;;;;;7.20;5.22;;;20.20;99.90;;;;;;5036248;28;20168;-58
2022/08/18 08:00:32;;;;;;;7.07;4.57;;;20.20;99.90;;;;;;5036437;28;20533;-58
2022/08/18 08:03:22;;;;;;;6.97;4.30;;;20.30;99.90;;;;;;5036242;28;20225;-58
2022/08/18 08:06:03;;;;;;;8.13;5.40;;;20.30;99.90;;;;;;5036140;28;20176;-58
2022/08/18 08:08:36;;;;;;;6.47;4.60;;;20.40;99.90;;;;;;5036373;28;20305;-58
2022/08/18 08:11:29;;;;;;;7.78;4.80;;;20.50;99.90;;;;;;5036477;28;20178;-58
2022/08/18 08:14:24;;;;;;;9.10;5.05;;;20.60;99.90;;;;;;5036107;28;20521;-58
2022/08/18 08:17:16;;;;;;;7.90;5.40;;;20.60;99.90;;;;;;5036147;28;20251;-58
2022/08/18 08:20:09;;;;;;;8.75;5.35;;;20.60;99.90;;;;;;5036080;28;20222;-58
2022/08/18 08:22:44;;;;;;;7.05;4.95;;;20.80;99.90;;;;;;5036169;28;20267;-58
2022/08/18 08:25:22;;;;;;;10.70;6.18;;;20.90;99.90;;;;;;5035975;28;20171;-59
2022/08/18 08:28:06;;;;;;;7.10;4.45;;;21.00;99.90;;;;;;5035708;28;20196;-60
2022/08/18 08:30:47;;;;;;;8.50;5.00;;;21.20;99.90;;;;;;5035660;28;20179;-59
2022/08/18 08:33:29;;;;;;;8.65;5.32;;;21.40;99.90;;;;;;5035900;28;20275;-59
2022/08/18 08:36:08;;;;;;;9.30;5.05;;;21.40;99.90;;;;;;5035854;28;20273;-58
2022/08/18 08:38:48;;;;;;;8.20;5.15;;;21.50;99.90;;;;;;5035634;28;20172;-59
2022/08/18 08:41:27;;;;;;;9.18;5.50;;;21.70;99.90;;;;;;5034287;28;20565;-59
2022/08/18 08:44:05;;;;;;;9.38;5.72;;;21.90;99.90;;;;;;5035603;28;20242;-58
2022/08/18 08:46:44;;;;;;;9.07;5.97;;;21.80;99.90;;;;;;5035510;28;20183;-58
2022/08/18 08:49:27;;;;;;;9.05;6.10;;;22.10;99.90;;;;;;5035442;28;20625;-59
2022/08/18 08:52:10;;;;;;;9.27;5.15;;;22.30;99.90;;;;;;5034339;28;20514;-59
2022/08/18 08:54:49;;;;;;;14.57;5.93;;;22.50;99.90;;;;;;5035432;28;20222;-59
2022/08/18 08:57:16;;;;;;;12.13;6.88;;;22.80;99.90;;;;;;5034094;28;20171;-58
2022/08/18 08:59:46;;;;;;;8.85;5.50;;;22.90;99.90;;;;;;5035085;28;20180;-58
2022/08/18 09:02:39;;;;;;;8.90;6.25;;;23.20;99.90;;;;;;5035042;28;20261;-59
2022/08/18 09:05:14;;;;;;;8.38;6.22;;;23.30;99.90;;;;;;5035437;28;20180;-59
2022/08/18 09:07:54;;;;;;;9.93;5.55;;;23.10;99.90;;;;;;5035100;28;20171;-58
2022/08/18 09:10:31;;;;;;;8.05;5.07;;;22.90;99.90;;;;;;5034862;28;20716;-59
2022/08/18 09:13:33;;;;;;;9.52;5.38;;;22.70;99.90;;;;;;5035302;28;20167;-59
2022/08/18 09:16:25;;;;;;;9.23;5.10;;;22.60;99.90;;;;;;5034994;28;20171;-58
2022/08/18 09:19:14;;;;;;;9.02;5.00;;;22.50;99.90;;;;;;5034787;28;20167;-58
2022/08/18 09:21:45;;;;;;;8.38;5.00;;;22.20;99.90;;;;;;5035114;28;20171;-58
2022/08/18 09:24:22;;;;;;;9.27;5.25;;;22.10;99.90;;;;;;5034898;28;20184;-59
2022/08/18 09:27:02;;;;;;;8.85;5.38;;;22.10;99.90;;;;;;5034744;28;20521;-59
2022/08/18 09:29:37;;;;;;;8.93;6.07;;;22.40;99.90;;;;;;5034418;28;20199;-59
2022/08/18 09:32:18;;;;;;;8.77;6.18;;;22.70;99.90;;;;;;5034462;28;20199;-58
2022/08/18 09:34:55;;;;;;;10.57;6.63;;;23.10;99.90;;;;;;5034582;28;20164;-59
2022/08/18 09:37:29;;;;;;;9.90;6.72;;;23.20;99.90;;;;;;5034425;28;20176;-58
2022/08/18 09:43:14;;;;;;;9.68;6.15;;;23.20;99.90;;;;;;5034280;28;20202;-58
2022/08/18 09:45:46;;;;;;;11.32;6.20;;;23.50;99.90;;;;;;5034232;28;20230;-58
2022/08/18 09:48:11;;;;;;;9.75;6.22;;;23.90;99.90;;;;;;5034373;28;20621;-58
2022/08/18 09:51:14;;;;;;;7.47;5.75;;;23.90;99.90;;;;;;5034301;28;20259;-58
2022/08/18 09:54:07;;;;;;;8.98;5.78;;;23.90;99.90;;;;;;5034116;28;20191;-59
2022/08/18 09:56:48;;;;;;;9.57;5.97;;;23.90;99.90;;;;;;5031783;28;20203;-58
2022/08/18 09:59:32;;;;;;;9.45;5.43;;;23.60;99.90;;;;;;5034439;28;20649;-58
2022/08/18 10:01:59;;;;;;;7.78;5.00;;;23.30;99.90;;;;;;5033925;28;20616;-58
2022/08/18 10:04:33;;;;;;;8.13;5.05;;;23.10;99.90;;;;;;5033855;28;20183;-59
2022/08/18 10:07:19;;;;;;;6.65;5.07;;;23.00;99.90;;;;;;5033735;28;20645;-58
2022/08/18 10:10:01;;;;;;;7.95;5.60;;;22.90;99.90;;;;;;5033596;28;20249;-58
2022/08/18 10:13:04;;;;;;;7.70;5.13;;;22.90;99.90;;;;;;5034350;28;20659;-58
2022/08/18 10:15:44;;;;;;;6.68;4.93;;;23.10;99.90;;;;;;5033887;28;20210;-58
2022/08/18 10:18:33;;;;;;;6.80;4.60;;;23.40;99.90;;;;;;5034115;28;20172;-58
2022/08/18 10:20:59;;;;;;;6.50;4.28;;;24.00;99.90;;;;;;5030329;28;20210;-59
2022/08/18 10:23:43;;;;;;;5.13;4.00;;;24.00;99.90;;;;;;5033491;28;20192;-59
2022/08/18 10:26:30;;;;;;;4.88;3.63;;;24.40;99.90;;;;;;5033634;28;20184;-58
2022/08/18 10:29:27;;;;;;;4.95;3.75;;;24.90;99.90;;;;;;5033718;28;20537;-59
2022/08/18 10:31:56;;;;;;;5.63;3.72;;;25.00;99.90;;;;;;5033663;28;20180;-58
2022/08/18 10:34:42;;;;;;;7.53;5.00;;;24.90;99.90;;;;;;5033434;28;20168;-58
2022/08/18 10:37:23;;;;;;;5.53;4.18;;;24.80;99.90;;;;;;5033460;28;20582;-58
2022/08/18 10:40:13;;;;;;;6.47;4.18;;;24.70;99.90;;;;;;5033314;28;20182;-58
2022/08/18 10:42:51;;;;;;;6.35;3.92;;;24.50;99.90;;;;;;5033466;28;20200;-58
2022/08/18 10:45:37;;;;;;;5.22;4.20;;;24.30;99.90;;;;;;5033596;28;20230;-58
2022/08/18 10:48:03;;;;;;;6.90;4.35;;;24.10;99.90;;;;;;5033242;28;20168;-58
2022/08/18 10:50:40;;;;;;;6.53;4.40;;;24.00;99.90;;;;;;5033248;28;20255;-58
2022/08/18 10:53:24;;;;;;;4.13;3.28;;;24.00;99.90;;;;;;5033460;28;20175;-59
2022/08/18 10:56:27;;;;;;;4.22;3.20;;;24.20;99.90;;;;;;5033203;28;20536;-59
2022/08/18 10:59:18;;;;;;;7.03;3.88;;;24.30;99.90;;;;;;5033084;28;20629;-59
2022/08/18 11:02:03;;;;;;;4.32;3.20;;;24.20;99.90;;;;;;5033213;28;20168;-58
2022/08/18 11:04:42;;;;;;;4.20;2.95;;;24.10;99.90;;;;;;5035303;28;20255;-58
2022/08/18 11:07:13;;;;;;;4.68;3.35;;;24.20;99.90;;;;;;5037250;28;20259;-59
2022/08/18 11:09:41;;;;;;;3.55;2.63;;;24.30;99.90;;;;;;5037331;28;20186;-59
2022/08/18 11:12:10;;;;;;;3.28;2.70;;;24.60;99.90;;;;;;5037251;28;20200;-58
2022/08/18 11:15:09;;;;;;;3.53;2.70;;;24.80;99.90;;;;;;5035882;28;20172;-58
2022/08/18 11:17:43;;;;;;;3.08;2.42;;;24.50;99.90;;;;;;5037313;28;20569;-58
2022/08/18 11:20:13;;;;;;;4.68;2.80;;;24.50;99.90;;;;;;5037196;28;20168;-58
2022/08/18 11:22:49;;;;;;;4.22;3.22;;;24.60;99.90;;;;;;5036967;28;20680;-58
2022/08/18 11:25:25;;;;;;;3.88;3.17;;;24.70;99.90;;;;;;5036880;28;20645;-58
2022/08/18 11:27:52;;;;;;;3.75;2.72;;;24.70;99.90;;;;;;5036676;28;20184;-59
2022/08/18 11:30:18;;;;;;;2.80;2.20;;;24.20;99.90;;;;;;5037142;28;20207;-58
2022/08/18 11:32:44;;;;;;;2.88;2.08;;;24.00;99.90;;;;;;5036938;28;20279;-58
2022/08/18 11:35:15;;;;;;;3.50;2.28;;;23.90;99.90;;;;;;5036885;28;20172;-59
2022/08/18 11:37:40;;;;;;;2.92;2.40;;;23.80;99.90;;;;;;5036729;28;20306;-59
2022/08/18 11:40:33;;;;;;;2.50;2.17;;;23.40;99.90;;;;;;5036659;28;20263;-59
2022/08/18 11:43:02;;;;;;;3.35;2.50;;;23.10;99.90;;;;;;5033309;28;20216;-59
2022/08/18 11:45:42;;;;;;;2.42;2.10;;;23.20;99.90;;;;;;5036549;28;20180;-59
2022/08/18 11:48:27;;;;;;;2.22;1.88;;;23.60;99.90;;;;;;5036512;28;20229;-59
2022/08/18 11:50:58;;;;;;;2.35;2.00;;;24.10;99.90;;;;;;5036324;28;20632;-59
2022/08/18 11:53:31;;;;;;;2.00;1.85;;;24.40;99.90;;;;;;5036138;28;20659;-60
2022/08/18 11:56:23;;;;;;;2.30;1.98;;;24.70;99.90;;;;;;5036403;28;20172;-59
2022/08/18 11:58:58;;;;;;;2.13;1.92;;;24.70;99.90;;;;;;5036515;28;20191;-59
2022/08/18 12:01:51;;;;;;;3.33;1.77;;;25.00;99.90;;;;;;5036388;28;20234;-59
2022/08/18 12:04:20;;;;;;;3.75;2.03;;;25.00;99.90;;;;;;5036384;28;20187;-59
2022/08/18 12:06:58;;;;;;;2.28;1.90;;;25.20;99.90;;;;;;5036105;28;20255;-59
2022/08/18 12:09:33;;;;;;;1.50;1.38;;;25.30;99.90;;;;;;5036062;28;20171;-60
2022/08/18 12:12:22;;;;;;;2.20;1.52;;;25.70;99.90;;;;;;5035939;28;20193;-59
2022/08/18 12:15:11;;;;;;;2.13;1.92;;;26.10;99.90;;;;;;5035911;28;20175;-59
2022/08/18 12:17:37;;;;;;;1.58;1.48;;;26.20;99.90;;;;;;5035977;28;20226;-59
2022/08/18 12:20:07;;;;;;;2.45;1.73;;;26.40;99.90;;;;;;5036150;28;20203;-59
2022/08/18 12:22:35;;;;;;;2.30;2.10;;;26.60;99.90;;;;;;5035997;28;20212;-59
2022/08/18 12:25:03;;;;;;;4.40;1.80;;;26.80;99.90;;;;;;5035887;28;20234;-59
2022/08/18 12:27:32;;;;;;;2.10;1.90;;;26.50;99.90;;;;;;5035507;28;20172;-59
2022/08/18 12:30:00;;;;;;;3.53;2.20;;;26.30;99.90;;;;;;5034943;28;20204;-59
2022/08/18 12:32:28;;;;;;;2.10;1.90;;;26.10;99.90;;;;;;5035489;28;20660;-58
2022/08/18 12:34:54;;;;;;;3.17;2.13;;;25.90;99.90;;;;;;5035600;28;20522;-58
2022/08/18 12:37:24;;;;;;;2.30;1.90;;;25.70;99.90;;;;;;5035715;28;20168;-58
2022/08/18 12:39:51;;;;;;;2.63;1.98;;;25.90;99.90;;;;;;5035496;28;20625;-57
2022/08/18 12:42:18;;;;;;;2.10;1.90;;;26.10;99.90;;;;;;5035384;28;20196;-57
2022/08/18 12:44:43;;;;;;;2.90;2.30;;;26.50;99.90;;;;;;5035329;28;20199;-57
2022/08/18 12:47:16;;;;;;;3.17;2.30;;;26.50;99.90;;;;;;5035606;28;20176;-57
2022/08/18 12:49:42;;;;;;;2.85;1.98;;;26.50;99.90;;;;;;5035606;28;20172;-57
2022/08/18 12:52:08;;;;;;;3.08;2.08;;;26.60;99.90;;;;;;5035253;28;20187;-57
2022/08/18 12:54:34;;;;;;;3.22;2.33;;;26.70;99.90;;;;;;5035645;28;20168;-57
2022/08/18 12:57:04;;;;;;;3.13;2.33;;;26.50;99.90;;;;;;5035126;28;20187;-58
2022/08/18 12:59:29;;;;;;;3.15;2.20;;;26.70;99.90;;;;;;5035527;28;20218;-58
2022/08/18 13:01:55;;;;;;;2.80;2.30;;;26.80;99.90;;;;;;5035046;28;20184;-58
2022/08/18 13:04:21;;;;;;;2.95;2.15;;;26.80;99.90;;;;;;5035262;28;20184;-58
2022/08/18 13:06:52;;;;;;;2.65;2.30;;;26.70;99.90;;;;;;5035196;28;20502;-57
2022/08/18 13:09:19;;;;;;;2.65;2.30;;;26.20;99.90;;;;;;5035084;28;20356;-58
2022/08/18 13:11:45;;;;;;;2.45;2.25;;;25.80;99.90;;;;;;5034978;28;20250;-57
2022/08/18 13:14:11;;;;;;;3.33;1.90;;;25.50;99.90;;;;;;5033562;28;20182;-58
2022/08/18 13:16:40;;;;;;;2.10;1.90;;;25.30;99.90;;;;;;5035083;28;20195;-58
2022/08/18 13:19:08;;;;;;;2.03;1.70;;;25.20;99.90;;;;;;5035048;28;20219;-58
2022/08/18 13:21:34;;;;;;;1.50;1.40;;;25.20;99.90;;;;;;5034953;28;20206;-57
2022/08/18 13:23:59;;;;;;;3.17;1.70;;;25.00;99.90;;;;;;5034710;28;20231;-58
2022/08/18 13:26:37;;;;;;;2.22;1.40;;;24.90;99.90;;;;;;5033843;28;20215;-58
2022/08/18 13:29:04;;;;;;;2.28;1.75;;;24.80;99.90;;;;;;5034726;28;20633;-57
2022/08/18 13:31:32;;;;;;;1.92;1.70;;;24.70;99.90;;;;;;5033553;28;20168;-58
2022/08/18 13:33:58;;;;;;;2.28;1.80;;;24.70;99.90;;;;;;5034527;28;20298;-57